createdAt,value
2018-12-22T00:00:12.254Z,10.57
2018-12-22T00:02:41.378Z,10.55
2018-12-22T00:05:10.538Z,10.37
2018-12-22T00:07:39.642Z,10.23
2018-12-22T00:10:09.004Z,10.14
2018-12-22T00:12:38.055Z,10.12
2018-12-22T00:15:07.243Z,10.12
2018-12-22T00:17:36.334Z,10.16
2018-12-22T00:20:06.293Z,10.16
2018-12-22T00:22:35.925Z,10.23
2018-12-22T00:25:05.240Z,10.35
2018-12-22T00:27:34.423Z,10.26
2018-12-22T00:30:03.982Z,10.27
2018-12-22T00:32:33.252Z,10.35
2018-12-22T00:35:02.334Z,10.37
2018-12-22T00:37:31.443Z,10.28
2018-12-22T00:40:00.524Z,10.26
2018-12-22T00:42:29.615Z,10.21
2018-12-22T00:44:58.703Z,10.16
2018-12-22T00:47:27.804Z,10.12
2018-12-22T00:49:57.037Z,10.07
2018-12-22T00:52:26.237Z,10.02
2018-12-22T00:54:55.654Z,9.93
2018-12-22T00:57:24.996Z,9.73
2018-12-22T00:59:54.078Z,9.72
2018-12-22T01:02:23.178Z,9.73
2018-12-22T01:04:52.258Z,9.77
2018-12-22T01:07:21.546Z,9.78
2018-12-22T01:09:50.692Z,9.78
2018-12-22T01:12:19.886Z,9.77
2018-12-22T01:14:49.027Z,9.78
2018-12-22T01:17:18.170Z,9.77
2018-12-22T01:19:47.354Z,9.81
2018-12-22T01:22:16.458Z,9.84
2018-12-22T01:24:45.558Z,9.83
2018-12-22T01:27:14.746Z,9.77
2018-12-22T01:29:43.838Z,9.71
2018-12-22T01:32:12.946Z,9.72
2018-12-22T01:34:42.034Z,9.73
2018-12-22T01:37:11.114Z,9.70
2018-12-22T01:39:40.183Z,9.63
2018-12-22T01:42:09.361Z,9.55
2018-12-22T01:44:38.454Z,9.49
2018-12-22T01:47:07.616Z,9.45
2018-12-22T01:49:36.651Z,9.52
2018-12-22T01:52:05.846Z,9.64
2018-12-22T01:54:35.014Z,9.68
2018-12-22T01:57:04.186Z,9.69
2018-12-22T01:59:33.299Z,9.69
2018-12-22T02:02:02.596Z,9.67
2018-12-22T02:04:31.701Z,9.65
2018-12-22T02:07:00.775Z,9.77
2018-12-22T02:09:29.857Z,9.79
2018-12-22T02:11:59.076Z,9.86
2018-12-22T02:14:28.276Z,9.91
2018-12-22T02:16:57.357Z,9.92
2018-12-22T02:19:26.870Z,9.91
2018-12-22T02:21:56.093Z,9.85
2018-12-22T02:24:25.197Z,9.83
2018-12-22T02:26:54.377Z,9.77
2018-12-22T02:36:11.396Z,9.51
2018-12-22T02:38:40.575Z,9.55
2018-12-22T02:41:09.674Z,9.49
2018-12-22T02:43:38.821Z,9.44
2018-12-22T02:46:07.922Z,9.54
2018-12-22T02:48:37.032Z,9.64
2018-12-22T02:51:06.270Z,9.70
2018-12-22T02:53:35.373Z,9.78
2018-12-22T02:56:04.513Z,9.73
2018-12-22T02:58:33.616Z,9.84
2018-12-22T03:01:02.697Z,9.83
2018-12-22T03:03:31.846Z,9.75
2018-12-22T03:06:00.996Z,9.81
2018-12-22T03:08:30.093Z,9.74
2018-12-22T03:10:59.289Z,9.74
2018-12-22T03:13:28.407Z,9.66
2018-12-22T03:15:57.483Z,9.81
2018-12-22T03:18:26.574Z,9.71
2018-12-22T03:20:55.746Z,9.69
2018-12-22T03:23:24.959Z,9.57
2018-12-22T03:25:54.127Z,9.43
2018-12-22T03:28:24.063Z,9.54
2018-12-22T03:30:53.150Z,9.50
2018-12-22T03:33:22.232Z,9.58
2018-12-22T03:35:51.454Z,9.61
2018-12-22T03:38:20.708Z,9.72
2018-12-22T03:40:49.873Z,9.76
2018-12-22T03:43:18.967Z,9.73
2018-12-22T03:45:48.068Z,9.82
2018-12-22T03:48:17.167Z,9.82
2018-12-22T03:50:46.267Z,9.70
2018-12-22T03:53:15.430Z,9.83
2018-12-22T03:55:44.518Z,9.82
2018-12-22T03:58:13.618Z,9.88
2018-12-22T04:00:42.722Z,9.87
2018-12-22T04:03:12.008Z,10.00
2018-12-22T04:05:41.438Z,10.04
2018-12-22T04:08:10.526Z,9.97
2018-12-22T04:10:39.618Z,10.00
2018-12-22T04:13:08.813Z,10.08
2018-12-22T04:15:38.013Z,10.16
2018-12-22T04:18:07.173Z,10.35
2018-12-22T04:20:36.603Z,10.20
2018-12-22T04:23:05.819Z,10.22
2018-12-22T04:25:34.923Z,10.46
2018-12-22T04:30:49.043Z,10.42
2018-12-22T04:33:18.195Z,10.43
2018-12-22T04:35:47.321Z,10.58
2018-12-22T04:38:16.443Z,10.42
2018-12-22T04:40:45.562Z,10.62
2018-12-22T04:43:14.713Z,10.62
2018-12-22T04:45:49.451Z,10.55
2018-12-22T04:48:18.664Z,10.54
2018-12-22T04:50:47.798Z,10.70
2018-12-22T04:53:16.918Z,10.59
2018-12-22T04:55:47.063Z,10.72
2018-12-22T04:58:16.180Z,10.75
2018-12-22T05:00:51.631Z,10.86
2018-12-22T05:03:21.118Z,10.86
2018-12-22T05:05:50.231Z,11.07
2018-12-22T05:08:19.661Z,11.06
2018-12-22T05:10:53.814Z,10.86
2018-12-22T05:13:23.190Z,11.04
2018-12-22T05:15:52.354Z,10.88
2018-12-22T05:18:21.484Z,10.95
2018-12-22T05:20:52.856Z,10.85
2018-12-22T05:23:23.114Z,10.91
2018-12-22T05:25:52.487Z,10.91
2018-12-22T05:31:05.586Z,10.72
2018-12-22T05:33:35.730Z,11.03
2018-12-22T05:36:04.852Z,10.97
2018-12-22T05:38:34.181Z,10.96
2018-12-22T05:41:05.586Z,10.99
2018-12-22T05:43:34.750Z,10.91
2018-12-22T05:46:03.857Z,10.98
2018-12-22T05:48:34.016Z,10.88
2018-12-22T05:51:03.359Z,10.97
2018-12-22T05:53:33.525Z,11.01
2018-12-22T05:56:02.628Z,11.10
2018-12-22T05:58:31.721Z,11.03
2018-12-22T06:01:00.930Z,10.93
2018-12-22T06:03:30.047Z,10.94
2018-12-22T06:05:59.156Z,10.92
2018-12-22T06:08:28.270Z,10.95
2018-12-22T06:10:57.495Z,10.82
2018-12-22T06:13:27.624Z,10.76
2018-12-22T06:15:56.713Z,10.62
2018-12-22T06:18:25.850Z,10.64
2018-12-22T06:20:55.077Z,10.70
2018-12-22T06:23:24.183Z,10.63
2018-12-22T06:25:53.332Z,10.61
2018-12-22T06:28:22.501Z,10.74
2018-12-22T06:30:51.597Z,10.72
2018-12-22T06:33:20.711Z,10.78
2018-12-22T06:35:49.817Z,10.82
2018-12-22T06:38:19.107Z,10.85
2018-12-22T06:40:48.310Z,10.91
2018-12-22T06:43:17.519Z,10.93
2018-12-22T06:45:46.639Z,10.92
2018-12-22T06:48:15.737Z,11.02
2018-12-22T06:50:44.843Z,10.86
2018-12-22T06:53:14.000Z,11.00
2018-12-22T06:55:43.091Z,11.01
2018-12-22T06:58:12.194Z,11.17
2018-12-22T07:00:41.343Z,11.21
2018-12-22T07:03:10.427Z,11.07
2018-12-22T07:05:39.505Z,10.98
2018-12-22T07:08:08.607Z,11.01
2018-12-22T07:10:37.717Z,10.99
2018-12-22T07:13:06.845Z,10.26
2018-12-22T07:15:36.030Z,10.89
2018-12-22T07:18:05.118Z,10.92
2018-12-22T07:20:34.454Z,10.98
2018-12-22T07:23:03.559Z,11.01
2018-12-22T07:25:32.706Z,10.98
2018-12-22T07:28:01.874Z,10.91
2018-12-22T07:30:31.080Z,10.93
2018-12-22T07:33:00.168Z,10.98
2018-12-22T07:35:29.319Z,10.96
2018-12-22T07:37:58.415Z,10.92
2018-12-22T07:40:33.790Z,10.97
2018-12-22T07:43:02.935Z,10.89
2018-12-22T07:45:32.046Z,11.01
2018-12-22T07:48:01.170Z,10.94
2018-12-22T07:50:30.276Z,10.93
2018-12-22T07:52:59.370Z,11.05
2018-12-22T07:55:28.486Z,11.06
2018-12-22T07:57:59.446Z,10.99
2018-12-22T08:00:34.819Z,11.08
2018-12-22T08:02:59.930Z,11.07
2018-12-22T08:05:29.039Z,11.06
2018-12-22T08:07:58.126Z,11.17
2018-12-22T08:10:27.350Z,11.11
2018-12-22T08:12:56.522Z,11.05
2018-12-22T08:15:25.632Z,11.08
2018-12-22T08:17:54.836Z,11.05
2018-12-22T08:20:23.966Z,11.17
2018-12-22T08:22:53.149Z,11.13
2018-12-22T08:25:22.700Z,11.07
2018-12-22T08:27:52.351Z,11.13
2018-12-22T08:30:21.438Z,11.22
2018-12-22T08:32:50.562Z,11.14
2018-12-22T08:35:19.720Z,11.15
2018-12-22T08:37:48.834Z,11.11
2018-12-22T08:40:18.079Z,11.09
2018-12-22T08:42:47.308Z,11.02
2018-12-22T08:45:17.483Z,11.02
2018-12-22T08:47:46.634Z,11.00
2018-12-22T08:50:15.729Z,10.96
2018-12-22T08:52:44.926Z,10.95
2018-12-22T08:55:16.338Z,10.89
2018-12-22T08:57:45.431Z,10.92
2018-12-22T09:00:14.652Z,10.94
2018-12-22T09:02:43.982Z,10.91
2018-12-22T09:05:13.185Z,10.94
2018-12-22T09:07:42.287Z,10.92
2018-12-22T09:10:11.417Z,10.95
2018-12-22T09:12:40.493Z,10.98
2018-12-22T09:15:09.877Z,10.95
2018-12-22T09:17:39.096Z,10.99
2018-12-22T09:20:09.869Z,10.90
2018-12-22T09:22:39.025Z,10.90
2018-12-22T09:25:08.873Z,10.94
2018-12-22T09:27:38.028Z,11.00
2018-12-22T09:30:10.757Z,10.95
2018-12-22T09:32:39.987Z,10.99
2018-12-22T09:35:09.311Z,10.96
2018-12-22T09:37:38.464Z,11.02
2018-12-22T09:40:08.116Z,11.00
2018-12-22T09:42:37.261Z,11.06
2018-12-22T09:45:07.978Z,11.10
2018-12-22T09:47:37.626Z,11.14
2018-12-22T09:50:10.106Z,11.05
2018-12-22T09:52:39.313Z,11.10
2018-12-22T09:55:08.706Z,11.15
2018-12-22T09:57:37.948Z,11.06
2018-12-22T10:00:09.914Z,11.20
2018-12-22T10:02:39.002Z,11.07
2018-12-22T10:05:08.623Z,11.16
2018-12-22T10:07:37.788Z,11.05
2018-12-22T10:10:12.695Z,11.09
2018-12-22T10:12:41.803Z,11.15
2018-12-22T10:15:10.991Z,11.15
2018-12-22T10:17:40.646Z,11.07
2018-12-22T10:20:09.903Z,11.23
2018-12-22T10:22:39.022Z,11.20
2018-12-22T10:25:10.730Z,11.15
2018-12-22T10:27:39.854Z,11.16
2018-12-22T10:30:15.060Z,11.10
2018-12-22T10:32:44.299Z,11.10
2018-12-22T10:35:24.411Z,10.99
2018-12-22T10:37:54.131Z,11.01
2018-12-22T10:40:23.364Z,10.90
2018-12-22T10:42:52.541Z,10.86
2018-12-22T10:45:21.761Z,10.75
2018-12-22T10:47:51.087Z,10.68
2018-12-22T10:50:20.330Z,10.67
2018-12-22T10:52:49.403Z,10.60
2018-12-22T10:55:18.579Z,10.54
2018-12-22T10:57:48.511Z,10.53
2018-12-22T11:00:18.819Z,10.55
2018-12-22T11:02:47.941Z,10.49
2018-12-22T11:05:17.727Z,10.46
2018-12-22T11:07:47.525Z,10.49
2018-12-22T11:10:21.267Z,10.43
2018-12-22T11:12:51.256Z,10.46
2018-12-22T11:15:20.385Z,10.42
2018-12-22T11:17:49.490Z,10.43
2018-12-22T11:20:18.605Z,10.40
2018-12-22T11:22:47.713Z,10.40
2018-12-22T11:25:20.727Z,10.40
2018-12-22T11:27:49.873Z,10.36
2018-12-22T11:30:24.076Z,10.38
2018-12-22T11:32:53.163Z,10.38
2018-12-22T11:35:22.346Z,10.39
2018-12-22T11:37:51.475Z,10.39
2018-12-22T11:40:20.663Z,10.35
2018-12-22T11:42:49.755Z,10.31
2018-12-22T11:45:18.887Z,10.26
2018-12-22T11:48:10.849Z,10.29
2018-12-22T11:50:40.024Z,10.27
2018-12-22T11:53:09.101Z,10.23
2018-12-22T11:55:38.187Z,10.21
2018-12-22T11:58:07.291Z,10.24
2018-12-22T12:00:36.441Z,10.21
2018-12-22T12:03:06.087Z,10.24
2018-12-22T12:05:35.188Z,10.28
2018-12-22T12:08:04.285Z,10.25
2018-12-22T12:10:33.375Z,10.24
2018-12-22T12:13:02.555Z,10.27
2018-12-22T12:15:39.298Z,10.30
2018-12-22T12:18:50.043Z,10.33
2018-12-22T12:21:19.106Z,10.41
2018-12-22T12:23:48.289Z,10.37
2018-12-22T12:26:17.388Z,10.39
2018-12-22T12:28:46.690Z,10.34
2018-12-22T12:31:15.846Z,10.33
2018-12-22T12:33:45.030Z,10.37
2018-12-22T12:36:14.113Z,10.26
2018-12-22T12:38:43.215Z,10.27
2018-12-22T12:41:12.314Z,10.29
2018-12-22T12:43:41.714Z,10.27
2018-12-22T12:46:17.655Z,10.22
2018-12-22T12:48:46.840Z,10.19
2018-12-22T12:51:16.187Z,10.19
2018-12-22T12:53:45.315Z,10.12
2018-12-22T12:56:14.979Z,10.12
2018-12-22T12:58:44.102Z,10.10
2018-12-22T13:01:13.209Z,10.16
2018-12-22T13:03:42.308Z,10.17
2018-12-22T13:06:11.404Z,10.15
2018-12-22T13:08:40.511Z,10.18
2018-12-22T13:11:09.799Z,10.16
2018-12-22T13:13:46.566Z,10.05
2018-12-22T13:16:15.749Z,10.10
2018-12-22T13:18:44.926Z,10.33
2018-12-22T13:21:14.033Z,11.07
2018-12-22T13:23:43.119Z,11.31
2018-12-22T13:26:12.326Z,10.91
2018-12-22T13:28:41.406Z,10.54
2018-12-22T13:31:10.910Z,10.52
2018-12-22T13:33:40.007Z,10.54
2018-12-22T13:36:09.302Z,10.16
2018-12-22T13:38:44.244Z,10.11
2018-12-22T13:41:13.370Z,10.14
2018-12-22T13:43:42.577Z,10.05
2018-12-22T13:46:13.222Z,10.06
2018-12-22T13:48:42.403Z,10.13
2018-12-22T13:51:11.708Z,10.07
2018-12-22T13:53:40.886Z,10.06
2018-12-22T13:56:09.994Z,10.04
2018-12-22T13:58:39.370Z,10.09
2018-12-22T14:01:12.294Z,10.11
2018-12-22T14:03:43.507Z,10.29
2018-12-22T14:06:49.820Z,10.09
2018-12-22T14:09:19.017Z,10.13
2018-12-22T14:11:48.150Z,10.12
2018-12-22T14:14:21.456Z,10.14
2018-12-22T14:17:27.810Z,10.26
2018-12-22T14:20:00.605Z,10.12
2018-12-22T14:22:31.335Z,10.10
2018-12-22T14:25:01.103Z,10.09
2018-12-22T14:27:30.855Z,10.04
2018-12-22T14:30:00.265Z,9.96
2018-12-22T14:32:29.347Z,9.72
2018-12-22T14:35:12.679Z,9.34
2018-12-22T14:37:41.910Z,9.23
2018-12-22T14:40:11.621Z,9.18
2018-12-22T14:42:40.715Z,9.10
2018-12-22T14:45:11.631Z,9.07
2018-12-22T14:47:40.813Z,9.00
2018-12-22T14:50:11.359Z,9.08
2018-12-22T14:52:40.507Z,8.90
2018-12-22T14:55:09.999Z,8.68
2018-12-22T14:57:50.890Z,8.60
2018-12-22T15:00:20.651Z,8.57
2018-12-22T15:02:49.950Z,8.55
2018-12-22T15:05:19.086Z,8.68
2018-12-22T15:07:48.399Z,8.71
2018-12-22T15:10:17.532Z,8.60
2018-12-22T15:12:46.604Z,8.56
2018-12-22T15:15:15.829Z,8.58
2018-12-22T15:17:45.242Z,8.66
2018-12-22T15:20:17.098Z,8.67
2018-12-22T15:22:46.230Z,8.60
2018-12-22T15:25:15.321Z,8.64
2018-12-22T15:27:44.625Z,8.61
2018-12-22T15:30:14.810Z,8.56
2018-12-22T15:32:53.792Z,8.57
2018-12-22T15:35:15.162Z,8.57
2018-12-22T15:37:44.256Z,8.58
2018-12-22T15:40:13.468Z,8.45
2018-12-22T15:42:42.542Z,8.37
2018-12-22T15:45:13.374Z,8.32
2018-12-22T15:47:43.525Z,8.42
2018-12-22T15:50:15.865Z,8.28
2018-12-22T15:52:45.006Z,8.41
2018-12-22T15:55:14.084Z,8.39
2018-12-22T15:57:43.258Z,8.43
2018-12-22T16:00:13.096Z,8.48
2018-12-22T16:02:42.169Z,8.39
2018-12-22T16:05:11.617Z,8.23
2018-12-22T16:07:41.087Z,8.18
2018-12-22T16:10:12.275Z,8.16
2018-12-22T16:12:41.458Z,8.15
2018-12-22T16:15:13.463Z,8.08
2018-12-22T16:17:42.732Z,8.07
2018-12-22T16:20:12.942Z,8.17
2018-12-22T16:22:45.929Z,8.07
2018-12-22T16:25:15.090Z,8.05
2018-12-22T16:27:44.299Z,8.02
2018-12-22T16:30:20.458Z,8.03
2018-12-22T16:32:49.667Z,7.95
2018-12-22T16:35:18.890Z,7.94
2018-12-22T16:37:47.976Z,7.85
2018-12-22T16:40:17.283Z,7.93
2018-12-22T16:42:46.350Z,7.82
2018-12-22T16:45:16.143Z,7.82
2018-12-22T16:47:45.431Z,7.81
2018-12-22T16:50:15.227Z,7.82
2018-12-22T16:52:44.340Z,7.73
2018-12-22T16:55:14.974Z,7.66
2018-12-22T16:57:49.389Z,7.56
2018-12-22T17:00:21.957Z,7.59
2018-12-22T17:02:56.899Z,7.68
2018-12-22T17:05:26.110Z,7.60
2018-12-22T17:07:55.179Z,7.59
2018-12-22T17:10:26.067Z,7.56
2018-12-22T17:12:55.231Z,7.48
2018-12-22T17:15:24.443Z,7.46
2018-12-22T17:17:53.623Z,7.55
2018-12-22T17:20:22.724Z,7.56
2018-12-22T17:23:18.001Z,7.53
2018-12-22T17:25:54.510Z,7.58
2018-12-22T17:28:28.163Z,7.54
2018-12-22T17:30:54.854Z,7.61
2018-12-22T17:33:23.977Z,7.53
2018-12-22T17:35:53.147Z,7.53
2018-12-22T17:38:22.314Z,7.52
2018-12-22T17:40:51.398Z,7.55
2018-12-22T17:43:20.730Z,7.55
2018-12-22T17:45:49.922Z,7.51
2018-12-22T17:48:19.119Z,7.47
2018-12-22T17:50:48.202Z,7.52
2018-12-22T17:53:23.974Z,7.54
2018-12-22T17:55:53.059Z,7.45
2018-12-22T17:58:22.253Z,7.56
2018-12-22T18:00:51.414Z,7.53
2018-12-22T18:03:27.351Z,7.60
2018-12-22T18:05:53.119Z,7.49
2018-12-22T18:08:22.195Z,7.49
2018-12-22T18:10:51.307Z,7.50
2018-12-22T18:13:20.432Z,7.53
2018-12-22T18:15:49.663Z,7.42
2018-12-22T18:18:18.751Z,7.58
2018-12-22T18:20:47.841Z,7.55
2018-12-22T18:23:17.024Z,7.51
2018-12-22T18:25:46.135Z,7.52
2018-12-22T18:28:15.200Z,7.63
2018-12-22T18:30:44.299Z,7.72
2018-12-22T18:33:13.855Z,7.76
2018-12-22T18:35:43.022Z,7.82
2018-12-22T18:38:12.130Z,7.84
2018-12-22T18:40:41.210Z,7.78
2018-12-22T18:43:10.318Z,7.86
2018-12-22T18:45:39.398Z,7.88
2018-12-22T18:48:08.512Z,7.85
2018-12-22T18:50:37.675Z,7.75
2018-12-22T18:53:06.777Z,7.72
2018-12-22T18:55:42.455Z,7.66
2018-12-22T18:58:12.665Z,7.64
2018-12-22T19:00:41.758Z,7.57
2018-12-22T19:03:10.851Z,7.61
2018-12-22T19:05:39.933Z,7.45
2018-12-22T19:08:12.981Z,7.53
2018-12-22T19:10:48.666Z,7.48
2018-12-22T19:13:17.770Z,7.48
2018-12-22T19:15:46.978Z,7.45
2018-12-22T19:18:16.048Z,7.47
2018-12-22T19:20:52.095Z,7.52
2018-12-22T19:23:22.923Z,7.52
2018-12-22T19:25:52.367Z,7.54
2018-12-22T19:28:21.454Z,7.53
2018-12-22T19:30:50.556Z,7.58
2018-12-22T19:33:19.637Z,7.64
2018-12-22T19:35:48.720Z,7.73
2018-12-22T19:38:24.397Z,7.68
2018-12-22T19:40:53.490Z,7.74
2018-12-22T19:43:22.565Z,7.80
2018-12-22T19:45:51.748Z,7.87
2018-12-22T19:48:20.827Z,7.85
2018-12-22T19:50:49.953Z,7.90
2018-12-22T19:53:19.125Z,7.81
2018-12-22T19:55:48.197Z,7.84
2018-12-22T19:58:17.325Z,7.97
2018-12-22T20:00:46.416Z,7.94
2018-12-22T20:03:15.538Z,8.05
2018-12-22T20:05:44.646Z,8.01
2018-12-22T20:08:13.804Z,8.01
2018-12-22T20:10:45.024Z,8.06
2018-12-22T20:13:14.047Z,8.06
2018-12-22T20:15:43.167Z,8.02
2018-12-22T20:18:12.259Z,8.00
2018-12-22T20:20:41.344Z,8.05
2018-12-22T20:23:10.446Z,7.95
2018-12-22T20:25:39.531Z,8.05
2018-12-22T20:28:08.708Z,7.98
2018-12-22T20:30:37.942Z,7.96
2018-12-22T20:33:07.030Z,7.87
2018-12-22T20:35:36.298Z,7.88
2018-12-22T20:38:05.590Z,7.94
2018-12-22T20:40:34.704Z,7.90
2018-12-22T20:43:03.781Z,7.96
2018-12-22T20:45:32.967Z,7.94
2018-12-22T20:48:02.241Z,7.95
2018-12-22T20:50:31.301Z,7.92
2018-12-22T20:53:00.523Z,7.89
2018-12-22T20:55:29.636Z,7.88
2018-12-22T20:57:58.753Z,7.95
2018-12-22T21:00:27.878Z,7.94
2018-12-22T21:02:56.973Z,7.90
2018-12-22T21:05:30.526Z,8.02
2018-12-22T21:07:59.607Z,7.97
2018-12-22T21:10:28.774Z,7.90
2018-12-22T21:12:57.866Z,7.97
2018-12-22T21:15:27.048Z,7.94
2018-12-22T21:17:56.254Z,7.92
2018-12-22T21:20:25.442Z,7.87
2018-12-22T21:22:54.526Z,7.84
2018-12-22T21:25:23.626Z,7.82
2018-12-22T21:27:52.894Z,7.82
2018-12-22T21:30:22.032Z,7.77
2018-12-22T21:32:51.111Z,7.84
2018-12-22T21:35:20.205Z,7.92
2018-12-22T21:37:49.622Z,7.87
2018-12-22T21:40:18.830Z,7.89
2018-12-22T21:42:47.939Z,7.84
2018-12-22T21:45:17.131Z,7.89
2018-12-22T21:47:46.319Z,7.84
2018-12-22T21:50:15.429Z,7.85
2018-12-22T21:52:44.518Z,7.86
2018-12-22T21:55:13.769Z,7.82
2018-12-22T21:57:42.917Z,7.84
2018-12-22T22:00:12.202Z,7.83
2018-12-22T22:02:41.295Z,7.84
2018-12-22T22:05:10.501Z,7.78
2018-12-22T22:07:39.787Z,7.75
2018-12-22T22:10:08.987Z,7.84
2018-12-22T22:12:38.074Z,7.83
2018-12-22T22:15:07.284Z,7.80
2018-12-22T22:17:36.321Z,7.76
2018-12-22T22:20:05.648Z,7.73
2018-12-22T22:22:34.874Z,7.82
2018-12-22T22:25:04.296Z,7.75
2018-12-22T22:27:33.475Z,7.81
2018-12-22T22:30:02.589Z,7.69
2018-12-22T22:32:31.774Z,7.80
2018-12-22T22:35:01.068Z,7.85
2018-12-22T22:37:30.169Z,7.86
2018-12-22T22:39:59.265Z,7.87
2018-12-22T22:42:28.458Z,7.82
2018-12-22T22:44:57.503Z,7.77
2018-12-22T22:47:26.565Z,7.76
2018-12-22T22:49:55.674Z,7.76
2018-12-22T22:52:24.753Z,7.69
2018-12-22T22:54:53.837Z,7.72
2018-12-22T22:57:22.933Z,7.84
2018-12-22T22:59:52.124Z,7.86
2018-12-22T23:02:21.439Z,7.83
2018-12-22T23:04:54.262Z,7.93
2018-12-22T23:07:21.657Z,7.88
2018-12-22T23:09:50.739Z,7.96
2018-12-22T23:12:20.159Z,7.94
2018-12-22T23:14:49.322Z,7.92
2018-12-22T23:17:18.470Z,7.86
2018-12-22T23:19:47.651Z,7.89
2018-12-22T23:22:16.728Z,7.95
2018-12-22T23:24:45.831Z,7.92
2018-12-22T23:27:14.920Z,7.89
2018-12-22T23:29:44.012Z,7.87
2018-12-22T23:32:13.082Z,7.83
2018-12-22T23:34:42.247Z,7.83
2018-12-22T23:37:11.526Z,7.81
2018-12-22T23:39:40.644Z,7.77
2018-12-22T23:42:09.721Z,7.78
2018-12-22T23:44:38.804Z,7.73
2018-12-22T23:47:07.907Z,7.77
2018-12-22T23:49:37.003Z,7.77
2018-12-22T23:52:06.303Z,7.77
2018-12-22T23:54:35.391Z,7.68
2018-12-22T23:57:05.648Z,7.64
2018-12-22T23:59:34.732Z,7.66
